Terminal Aerodrome Forecast
Issued by NWS

Home | Current Version | Previous Version | Text Only | Print | Product List | Glossary On
Versions: 1 2 3 4 5 6 7 8 9 10 11 12 13 14 15 16 17 18 19 20 21 22 23 24 25 26 27 28 29 30 31 32 33 34
000
FTUS45 KCYS 020500 CCA
TAFAIA
TAF COR
KAIA 020553Z 0206/0306 33005KT P6SM SCT015 BKN100
      TEMPO 0206/0209 BKN009
     FM020900 30005KT P6SM SCT200
     FM021900 31010G19KT P6SM SCT200
     FM030200 35020G28KT 4SM -SHSN BR BKN030 OVC080=

USA.gov is the U.S. government's official web portal to all federal, state and local government web resources and services.